sensor_id;sensor_type;location;lat;lon;timestamp;P1;durP1;ratioP1;P2;durP2;ratioP2
77111;SDS011;66064;50.226;14.344;2023-09-19T00:00:45;5.75;;;4.68;;
77111;SDS011;66064;50.226;14.344;2023-09-19T00:03:33;4.68;;;4.28;;
77111;SDS011;66064;50.226;14.344;2023-09-19T00:05:58;6.72;;;4.78;;
77111;SDS011;66064;50.226;14.344;2023-09-19T00:08:26;5.18;;;4.68;;
77111;SDS011;66064;50.226;14.344;2023-09-19T00:10:53;5.20;;;4.70;;
77111;SDS011;66064;50.226;14.344;2023-09-19T00:13:20;7.05;;;4.90;;
77111;SDS011;66064;50.226;14.344;2023-09-19T00:15:46;6.15;;;5.55;;
77111;SDS011;66064;50.226;14.344;2023-09-19T00:18:14;5.95;;;5.53;;
77111;SDS011;66064;50.226;14.344;2023-09-19T00:20:41;5.93;;;4.85;;
77111;SDS011;66064;50.226;14.344;2023-09-19T00:23:08;6.15;;;5.55;;
77111;SDS011;66064;50.226;14.344;2023-09-19T00:25:34;5.82;;;4.50;;
77111;SDS011;66064;50.226;14.344;2023-09-19T00:28:03;6.32;;;5.65;;
77111;SDS011;66064;50.226;14.344;2023-09-19T00:30:29;5.95;;;4.50;;
77111;SDS011;66064;50.226;14.344;2023-09-19T00:32:56;5.30;;;4.35;;
77111;SDS011;66064;50.226;14.344;2023-09-19T00:35:22;5.35;;;4.82;;
77111;SDS011;66064;50.226;14.344;2023-09-19T00:37:53;6.53;;;5.28;;
77111;SDS011;66064;50.226;14.344;2023-09-19T00:40:19;5.03;;;4.63;;
77111;SDS011;66064;50.226;14.344;2023-09-19T00:42:47;5.38;;;4.97;;
77111;SDS011;66064;50.226;14.344;2023-09-19T00:45:15;6.13;;;5.20;;
77111;SDS011;66064;50.226;14.344;2023-09-19T00:50:11;5.05;;;4.53;;
77111;SDS011;66064;50.226;14.344;2023-09-19T00:52:41;5.57;;;5.18;;
77111;SDS011;66064;50.226;14.344;2023-09-19T00:55:09;5.05;;;4.55;;
77111;SDS011;66064;50.226;14.344;2023-09-19T00:57:40;7.20;;;5.00;;
77111;SDS011;66064;50.226;14.344;2023-09-19T01:00:06;6.13;;;5.53;;
77111;SDS011;66064;50.226;14.344;2023-09-19T01:02:37;6.22;;;5.63;;
77111;SDS011;66064;50.226;14.344;2023-09-19T01:05:02;6.85;;;5.25;;
77111;SDS011;66064;50.226;14.344;2023-09-19T01:07:31;5.22;;;4.25;;
77111;SDS011;66064;50.226;14.344;2023-09-19T01:10:02;10.32;;;5.55;;
77111;SDS011;66064;50.226;14.344;2023-09-19T01:12:45;5.40;;;4.90;;
77111;SDS011;66064;50.226;14.344;2023-09-19T01:31:33;5.75;;;4.95;;
77111;SDS011;66064;50.226;14.344;2023-09-19T01:34:03;5.43;;;5.03;;
77111;SDS011;66064;50.226;14.344;2023-09-19T01:36:34;6.13;;;4.28;;
77111;SDS011;66064;50.226;14.344;2023-09-19T01:39:03;5.95;;;4.68;;
77111;SDS011;66064;50.226;14.344;2023-09-19T01:41:47;4.90;;;4.50;;
77111;SDS011;66064;50.226;14.344;2023-09-19T01:44:27;4.80;;;4.40;;
77111;SDS011;66064;50.226;14.344;2023-09-19T01:47:03;5.50;;;4.63;;
77111;SDS011;66064;50.226;14.344;2023-09-19T01:50:13;5.55;;;4.32;;
77111;SDS011;66064;50.226;14.344;2023-09-19T01:52:50;4.57;;;4.18;;
77111;SDS011;66064;50.226;14.344;2023-09-19T01:55:24;5.30;;;4.90;;
77111;SDS011;66064;50.226;14.344;2023-09-19T01:57:58;4.20;;;3.80;;
77111;SDS011;66064;50.226;14.344;2023-09-19T02:00:32;4.85;;;4.45;;
77111;SDS011;66064;50.226;14.344;2023-09-19T02:03:02;4.78;;;4.38;;
77111;SDS011;66064;50.226;14.344;2023-09-19T02:05:29;4.30;;;4.00;;
77111;SDS011;66064;50.226;14.344;2023-09-19T02:07:56;4.75;;;4.32;;
77111;SDS011;66064;50.226;14.344;2023-09-19T02:10:24;4.82;;;4.47;;
77111;SDS011;66064;50.226;14.344;2023-09-19T02:12:50;4.95;;;3.20;;
77111;SDS011;66064;50.226;14.344;2023-09-19T02:15:16;5.32;;;4.72;;
77111;SDS011;66064;50.226;14.344;2023-09-19T02:17:42;5.38;;;4.60;;
77111;SDS011;66064;50.226;14.344;2023-09-19T02:20:10;4.97;;;4.45;;
77111;SDS011;66064;50.226;14.344;2023-09-19T02:22:41;5.13;;;4.63;;
77111;SDS011;66064;50.226;14.344;2023-09-19T02:25:07;5.15;;;4.05;;
77111;SDS011;66064;50.226;14.344;2023-09-19T02:27:34;4.88;;;4.43;;
77111;SDS011;66064;50.226;14.344;2023-09-19T02:30:00;5.60;;;4.43;;
77111;SDS011;66064;50.226;14.344;2023-09-19T02:32:30;4.68;;;4.28;;
77111;SDS011;66064;50.226;14.344;2023-09-19T02:35:02;4.72;;;3.38;;
77111;SDS011;66064;50.226;14.344;2023-09-19T02:37:30;5.85;;;5.25;;
77111;SDS011;66064;50.226;14.344;2023-09-19T02:39:57;5.05;;;4.63;;
77111;SDS011;66064;50.226;14.344;2023-09-19T02:42:22;7.53;;;5.53;;
77111;SDS011;66064;50.226;14.344;2023-09-19T02:44:48;4.45;;;4.05;;
77111;SDS011;66064;50.226;14.344;2023-09-19T02:47:14;5.90;;;4.35;;
77111;SDS011;66064;50.226;14.344;2023-09-19T02:49:42;6.15;;;5.05;;
77111;SDS011;66064;50.226;14.344;2023-09-19T02:52:08;4.45;;;4.05;;
77111;SDS011;66064;50.226;14.344;2023-09-19T02:54:34;5.57;;;5.00;;
77111;SDS011;66064;50.226;14.344;2023-09-19T02:57:00;6.90;;;5.13;;
77111;SDS011;66064;50.226;14.344;2023-09-19T02:59:26;5.50;;;5.07;;
77111;SDS011;66064;50.226;14.344;2023-09-19T03:01:53;4.90;;;4.32;;
77111;SDS011;66064;50.226;14.344;2023-09-19T03:04:20;5.70;;;4.82;;
77111;SDS011;66064;50.226;14.344;2023-09-19T03:06:46;5.97;;;4.63;;
77111;SDS011;66064;50.226;14.344;2023-09-19T03:09:17;4.93;;;4.50;;
77111;SDS011;66064;50.226;14.344;2023-09-19T03:11:42;4.97;;;4.22;;
77111;SDS011;66064;50.226;14.344;2023-09-19T03:14:10;5.10;;;4.60;;
77111;SDS011;66064;50.226;14.344;2023-09-19T03:16:36;5.47;;;4.68;;
77111;SDS011;66064;50.226;14.344;2023-09-19T03:19:03;5.47;;;4.97;;
77111;SDS011;66064;50.226;14.344;2023-09-19T03:21:30;6.05;;;5.55;;
77111;SDS011;66064;50.226;14.344;2023-09-19T03:23:57;5.32;;;4.82;;
77111;SDS011;66064;50.226;14.344;2023-09-19T03:26:22;5.25;;;4.57;;
77111;SDS011;66064;50.226;14.344;2023-09-19T03:28:48;4.90;;;4.50;;
77111;SDS011;66064;50.226;14.344;2023-09-19T03:31:14;5.00;;;4.50;;
77111;SDS011;66064;50.226;14.344;2023-09-19T03:33:40;6.63;;;4.13;;
77111;SDS011;66064;50.226;14.344;2023-09-19T03:36:07;5.32;;;4.93;;
77111;SDS011;66064;50.226;14.344;2023-09-19T03:38:34;5.05;;;4.65;;
77111;SDS011;66064;50.226;14.344;2023-09-19T03:41:00;6.15;;;5.32;;
77111;SDS011;66064;50.226;14.344;2023-09-19T03:43:28;6.03;;;5.53;;
77111;SDS011;66064;50.226;14.344;2023-09-19T03:45:54;6.10;;;5.60;;
77111;SDS011;66064;50.226;14.344;2023-09-19T03:48:20;5.93;;;5.53;;
77111;SDS011;66064;50.226;14.344;2023-09-19T03:50:47;6.10;;;5.50;;
77111;SDS011;66064;50.226;14.344;2023-09-19T03:53:13;6.28;;;5.68;;
77111;SDS011;66064;50.226;14.344;2023-09-19T03:55:39;6.15;;;5.65;;
77111;SDS011;66064;50.226;14.344;2023-09-19T03:58:05;5.63;;;5.07;;
77111;SDS011;66064;50.226;14.344;2023-09-19T04:00:31;6.03;;;5.53;;
77111;SDS011;66064;50.226;14.344;2023-09-19T04:03:00;7.72;;;5.85;;
77111;SDS011;66064;50.226;14.344;2023-09-19T04:05:31;9.95;;;6.53;;
77111;SDS011;66064;50.226;14.344;2023-09-19T04:07:57;6.07;;;5.57;;
77111;SDS011;66064;50.226;14.344;2023-09-19T04:10:22;6.97;;;5.55;;
77111;SDS011;66064;50.226;14.344;2023-09-19T04:12:52;6.10;;;4.80;;
77111;SDS011;66064;50.226;14.344;2023-09-19T04:15:19;6.70;;;4.80;;
77111;SDS011;66064;50.226;14.344;2023-09-19T04:17:51;7.28;;;6.63;;
77111;SDS011;66064;50.226;14.344;2023-09-19T04:20:17;7.25;;;5.78;;
77111;SDS011;66064;50.226;14.344;2023-09-19T04:22:50;7.20;;;6.10;;
77111;SDS011;66064;50.226;14.344;2023-09-19T04:25:16;8.10;;;5.97;;
77111;SDS011;66064;50.226;14.344;2023-09-19T04:27:44;6.95;;;6.35;;
77111;SDS011;66064;50.226;14.344;2023-09-19T04:30:10;6.63;;;5.93;;
77111;SDS011;66064;50.226;14.344;2023-09-19T04:32:38;6.60;;;6.10;;
77111;SDS011;66064;50.226;14.344;2023-09-19T04:35:05;6.28;;;5.68;;
77111;SDS011;66064;50.226;14.344;2023-09-19T04:37:38;7.85;;;5.65;;
77111;SDS011;66064;50.226;14.344;2023-09-19T04:40:07;8.88;;;7.25;;
77111;SDS011;66064;50.226;14.344;2023-09-19T04:42:39;6.72;;;5.97;;
77111;SDS011;66064;50.226;14.344;2023-09-19T04:45:09;6.68;;;6.03;;
77111;SDS011;66064;50.226;14.344;2023-09-19T04:47:39;6.07;;;5.47;;
77111;SDS011;66064;50.226;14.344;2023-09-19T04:50:08;7.75;;;7.05;;
77111;SDS011;66064;50.226;14.344;2023-09-19T04:52:40;6.25;;;5.68;;
77111;SDS011;66064;50.226;14.344;2023-09-19T04:55:10;7.30;;;5.72;;
77111;SDS011;66064;50.226;14.344;2023-09-19T04:57:43;6.10;;;4.95;;
77111;SDS011;66064;50.226;14.344;2023-09-19T05:00:16;6.75;;;5.95;;
77111;SDS011;66064;50.226;14.344;2023-09-19T05:02:49;6.93;;;4.47;;
77111;SDS011;66064;50.226;14.344;2023-09-19T05:05:18;6.38;;;5.78;;
77111;SDS011;66064;50.226;14.344;2023-09-19T05:07:45;6.80;;;5.60;;
77111;SDS011;66064;50.226;14.344;2023-09-19T05:10:11;6.18;;;5.57;;
77111;SDS011;66064;50.226;14.344;2023-09-19T05:12:39;7.57;;;5.50;;
77111;SDS011;66064;50.226;14.344;2023-09-19T05:15:06;7.13;;;5.80;;
77111;SDS011;66064;50.226;14.344;2023-09-19T05:17:34;6.10;;;5.50;;
77111;SDS011;66064;50.226;14.344;2023-09-19T05:20:01;6.80;;;5.95;;
77111;SDS011;66064;50.226;14.344;2023-09-19T05:22:41;9.30;;;5.95;;
77111;SDS011;66064;50.226;14.344;2023-09-19T05:25:08;6.00;;;5.47;;
77111;SDS011;66064;50.226;14.344;2023-09-19T05:27:36;6.57;;;5.20;;
77111;SDS011;66064;50.226;14.344;2023-09-19T05:30:02;6.40;;;5.03;;
77111;SDS011;66064;50.226;14.344;2023-09-19T05:32:28;6.90;;;5.47;;
77111;SDS011;66064;50.226;14.344;2023-09-19T05:34:54;6.82;;;6.22;;
77111;SDS011;66064;50.226;14.344;2023-09-19T05:37:22;6.10;;;5.50;;
77111;SDS011;66064;50.226;14.344;2023-09-19T05:39:48;6.40;;;5.82;;
77111;SDS011;66064;50.226;14.344;2023-09-19T05:42:15;6.38;;;5.22;;
77111;SDS011;66064;50.226;14.344;2023-09-19T05:44:41;7.80;;;6.03;;
77111;SDS011;66064;50.226;14.344;2023-09-19T05:47:07;5.68;;;5.18;;
77111;SDS011;66064;50.226;14.344;2023-09-19T05:49:37;8.00;;;5.57;;
77111;SDS011;66064;50.226;14.344;2023-09-19T05:52:07;6.15;;;5.50;;
77111;SDS011;66064;50.226;14.344;2023-09-19T05:54:33;6.18;;;3.88;;
77111;SDS011;66064;50.226;14.344;2023-09-19T05:57:00;6.00;;;4.97;;
77111;SDS011;66064;50.226;14.344;2023-09-19T05:59:27;6.85;;;6.13;;
77111;SDS011;66064;50.226;14.344;2023-09-19T06:01:53;9.35;;;5.22;;
77111;SDS011;66064;50.226;14.344;2023-09-19T06:04:19;6.30;;;4.45;;
77111;SDS011;66064;50.226;14.344;2023-09-19T06:06:45;6.13;;;5.25;;
77111;SDS011;66064;50.226;14.344;2023-09-19T06:09:14;8.68;;;5.57;;
77111;SDS011;66064;50.226;14.344;2023-09-19T06:11:43;7.32;;;4.70;;
77111;SDS011;66064;50.226;14.344;2023-09-19T06:16:36;6.07;;;4.75;;
77111;SDS011;66064;50.226;14.344;2023-09-19T06:19:06;5.32;;;4.82;;
77111;SDS011;66064;50.226;14.344;2023-09-19T06:21:34;5.43;;;4.55;;
77111;SDS011;66064;50.226;14.344;2023-09-19T06:24:00;6.05;;;4.93;;
77111;SDS011;66064;50.226;14.344;2023-09-19T06:26:26;4.43;;;4.03;;
77111;SDS011;66064;50.226;14.344;2023-09-19T06:28:52;5.70;;;4.95;;
77111;SDS011;66064;50.226;14.344;2023-09-19T06:31:19;5.50;;;4.95;;
77111;SDS011;66064;50.226;14.344;2023-09-19T06:33:48;8.00;;;4.93;;
77111;SDS011;66064;50.226;14.344;2023-09-19T06:36:14;6.30;;;5.75;;
77111;SDS011;66064;50.226;14.344;2023-09-19T06:38:40;5.28;;;4.15;;
77111;SDS011;66064;50.226;14.344;2023-09-19T06:41:06;6.57;;;5.07;;
77111;SDS011;66064;50.226;14.344;2023-09-19T06:43:34;5.30;;;4.80;;
77111;SDS011;66064;50.226;14.344;2023-09-19T06:46:01;5.53;;;4.82;;
77111;SDS011;66064;50.226;14.344;2023-09-19T06:48:27;6.20;;;5.30;;
77111;SDS011;66064;50.226;14.344;2023-09-19T06:50:59;5.35;;;4.07;;
77111;SDS011;66064;50.226;14.344;2023-09-19T06:53:33;6.15;;;4.97;;
77111;SDS011;66064;50.226;14.344;2023-09-19T06:56:01;5.75;;;4.80;;
77111;SDS011;66064;50.226;14.344;2023-09-19T06:58:28;5.78;;;4.40;;
77111;SDS011;66064;50.226;14.344;2023-09-19T07:00:54;4.30;;;3.90;;
77111;SDS011;66064;50.226;14.344;2023-09-19T07:03:20;5.57;;;4.28;;
77111;SDS011;66064;50.226;14.344;2023-09-19T07:05:47;4.70;;;4.03;;
77111;SDS011;66064;50.226;14.344;2023-09-19T07:08:14;4.30;;;3.75;;
77111;SDS011;66064;50.226;14.344;2023-09-19T07:10:41;6.43;;;4.38;;
77111;SDS011;66064;50.226;14.344;2023-09-19T07:13:14;3.88;;;3.55;;
77111;SDS011;66064;50.226;14.344;2023-09-19T07:15:43;4.97;;;3.38;;
77111;SDS011;66064;50.226;14.344;2023-09-19T07:18:15;4.30;;;3.90;;
77111;SDS011;66064;50.226;14.344;2023-09-19T07:20:43;4.15;;;3.75;;
77111;SDS011;66064;50.226;14.344;2023-09-19T07:23:19;6.97;;;3.95;;
77111;SDS011;66064;50.226;14.344;2023-09-19T07:25:48;4.10;;;3.72;;
77111;SDS011;66064;50.226;14.344;2023-09-19T07:28:14;4.32;;;3.92;;
77111;SDS011;66064;50.226;14.344;2023-09-19T07:30:41;4.57;;;3.75;;
77111;SDS011;66064;50.226;14.344;2023-09-19T07:33:07;5.28;;;3.47;;
77111;SDS011;66064;50.226;14.344;2023-09-19T07:35:37;6.93;;;4.25;;
77111;SDS011;66064;50.226;14.344;2023-09-19T07:38:06;6.28;;;3.53;;
77111;SDS011;66064;50.226;14.344;2023-09-19T07:40:33;6.38;;;3.63;;
77111;SDS011;66064;50.226;14.344;2023-09-19T07:42:59;6.53;;;3.78;;
77111;SDS011;66064;50.226;14.344;2023-09-19T07:45:31;4.65;;;3.78;;
77111;SDS011;66064;50.226;14.344;2023-09-19T07:47:58;5.18;;;3.95;;
77111;SDS011;66064;50.226;14.344;2023-09-19T07:50:33;6.20;;;4.32;;
77111;SDS011;66064;50.226;14.344;2023-09-19T07:53:02;4.38;;;3.97;;
77111;SDS011;66064;50.226;14.344;2023-09-19T07:55:30;5.18;;;3.90;;
77111;SDS011;66064;50.226;14.344;2023-09-19T07:57:59;4.95;;;3.65;;
77111;SDS011;66064;50.226;14.344;2023-09-19T08:00:25;5.43;;;4.28;;
77111;SDS011;66064;50.226;14.344;2023-09-19T08:02:51;4.82;;;3.67;;
77111;SDS011;66064;50.226;14.344;2023-09-19T08:05:17;4.18;;;3.78;;
77111;SDS011;66064;50.226;14.344;2023-09-19T08:07:44;5.03;;;4.63;;
77111;SDS011;66064;50.226;14.344;2023-09-19T08:10:14;5.50;;;4.13;;
77111;SDS011;66064;50.226;14.344;2023-09-19T08:12:41;3.47;;;3.15;;
77111;SDS011;66064;50.226;14.344;2023-09-19T08:15:15;4.50;;;3.55;;
77111;SDS011;66064;50.226;14.344;2023-09-19T08:17:43;3.85;;;3.45;;
77111;SDS011;66064;50.226;14.344;2023-09-19T08:20:09;4.90;;;3.50;;
77111;SDS011;66064;50.226;14.344;2023-09-19T08:22:51;4.93;;;3.60;;
77111;SDS011;66064;50.226;14.344;2023-09-19T08:25:20;3.25;;;2.90;;
77111;SDS011;66064;50.226;14.344;2023-09-19T08:27:47;3.33;;;2.35;;
77111;SDS011;66064;50.226;14.344;2023-09-19T08:30:15;6.97;;;2.72;;
77111;SDS011;66064;50.226;14.344;2023-09-19T08:35:12;3.40;;;2.70;;
77111;SDS011;66064;50.226;14.344;2023-09-19T08:37:39;3.22;;;2.58;;
77111;SDS011;66064;50.226;14.344;2023-09-19T08:40:06;3.03;;;2.45;;
77111;SDS011;66064;50.226;14.344;2023-09-19T08:42:48;3.75;;;2.47;;
77111;SDS011;66064;50.226;14.344;2023-09-19T08:45:23;5.30;;;3.22;;
77111;SDS011;66064;50.226;14.344;2023-09-19T08:50:27;3.53;;;2.90;;
77111;SDS011;66064;50.226;14.344;2023-09-19T08:52:56;4.95;;;3.25;;
77111;SDS011;66064;50.226;14.344;2023-09-19T08:55:27;5.30;;;2.70;;
77111;SDS011;66064;50.226;14.344;2023-09-19T08:58:04;4.43;;;2.95;;
77111;SDS011;66064;50.226;14.344;2023-09-19T09:00:36;4.20;;;3.20;;
77111;SDS011;66064;50.226;14.344;2023-09-19T09:03:02;3.35;;;2.65;;
77111;SDS011;66064;50.226;14.344;2023-09-19T09:05:32;3.72;;;2.90;;
77111;SDS011;66064;50.226;14.344;2023-09-19T09:08:02;3.30;;;2.90;;
77111;SDS011;66064;50.226;14.344;2023-09-19T09:10:30;6.18;;;3.22;;
77111;SDS011;66064;50.226;14.344;2023-09-19T09:12:57;4.28;;;2.70;;
77111;SDS011;66064;50.226;14.344;2023-09-19T09:15:24;2.83;;;2.33;;
77111;SDS011;66064;50.226;14.344;2023-09-19T09:17:50;3.10;;;1.95;;
77111;SDS011;66064;50.226;14.344;2023-09-19T09:20:20;5.47;;;2.15;;
77111;SDS011;66064;50.226;14.344;2023-09-19T09:22:52;2.92;;;1.80;;
77111;SDS011;66064;50.226;14.344;2023-09-19T09:25:20;4.03;;;2.00;;
77111;SDS011;66064;50.226;14.344;2023-09-19T09:27:59;3.13;;;2.10;;
77111;SDS011;66064;50.226;14.344;2023-09-19T09:30:33;3.20;;;2.35;;
77111;SDS011;66064;50.226;14.344;2023-09-19T09:33:08;3.30;;;2.20;;
77111;SDS011;66064;50.226;14.344;2023-09-19T09:35:57;3.28;;;1.77;;
77111;SDS011;66064;50.226;14.344;2023-09-19T09:38:47;2.25;;;1.60;;
77111;SDS011;66064;50.226;14.344;2023-09-19T09:41:15;2.30;;;1.50;;
77111;SDS011;66064;50.226;14.344;2023-09-19T09:43:53;2.40;;;1.60;;
77111;SDS011;66064;50.226;14.344;2023-09-19T09:46:20;2.30;;;1.77;;
77111;SDS011;66064;50.226;14.344;2023-09-19T09:48:47;2.40;;;1.50;;
77111;SDS011;66064;50.226;14.344;2023-09-19T09:51:43;2.60;;;1.60;;
77111;SDS011;66064;50.226;14.344;2023-09-19T09:54:25;3.67;;;1.67;;
77111;SDS011;66064;50.226;14.344;2023-09-19T09:56:59;3.58;;;1.52;;
77111;SDS011;66064;50.226;14.344;2023-09-19T10:02:20;3.38;;;1.35;;
77111;SDS011;66064;50.226;14.344;2023-09-19T10:04:51;2.92;;;1.70;;
77111;SDS011;66064;50.226;14.344;2023-09-19T10:07:30;3.25;;;1.42;;
77111;SDS011;66064;50.226;14.344;2023-09-19T10:10:30;3.22;;;1.65;;
77111;SDS011;66064;50.226;14.344;2023-09-19T10:13:10;2.70;;;1.80;;
77111;SDS011;66064;50.226;14.344;2023-09-19T10:15:47;2.95;;;1.83;;
77111;SDS011;66064;50.226;14.344;2023-09-19T10:18:23;2.53;;;1.80;;
77111;SDS011;66064;50.226;14.344;2023-09-19T10:20:51;2.60;;;1.70;;
77111;SDS011;66064;50.226;14.344;2023-09-19T10:23:19;2.30;;;1.50;;
77111;SDS011;66064;50.226;14.344;2023-09-19T10:25:49;2.70;;;1.80;;
77111;SDS011;66064;50.226;14.344;2023-09-19T10:28:17;3.67;;;1.50;;
77111;SDS011;66064;50.226;14.344;2023-09-19T10:30:47;2.88;;;1.70;;
77111;SDS011;66064;50.226;14.344;2023-09-19T10:33:17;3.15;;;1.60;;
77111;SDS011;66064;50.226;14.344;2023-09-19T10:35:48;2.63;;;1.67;;
77111;SDS011;66064;50.226;14.344;2023-09-19T10:38:25;3.50;;;1.60;;
77111;SDS011;66064;50.226;14.344;2023-09-19T10:40:54;2.70;;;1.50;;
77111;SDS011;66064;50.226;14.344;2023-09-19T10:43:26;2.97;;;1.50;;
77111;SDS011;66064;50.226;14.344;2023-09-19T10:46:00;2.22;;;1.45;;
77111;SDS011;66064;50.226;14.344;2023-09-19T10:48:29;3.63;;;1.50;;
77111;SDS011;66064;50.226;14.344;2023-09-19T10:56:33;2.60;;;1.50;;
77111;SDS011;66064;50.226;14.344;2023-09-19T10:59:09;2.72;;;1.40;;
77111;SDS011;66064;50.226;14.344;2023-09-19T11:01:44;4.28;;;1.50;;
77111;SDS011;66064;50.226;14.344;2023-09-19T11:09:56;2.67;;;1.50;;
77111;SDS011;66064;50.226;14.344;2023-09-19T11:15:11;3.08;;;1.70;;
77111;SDS011;66064;50.226;14.344;2023-09-19T11:26:41;2.80;;;1.70;;
77111;SDS011;66064;50.226;14.344;2023-09-19T11:29:31;3.40;;;1.63;;
77111;SDS011;66064;50.226;14.344;2023-09-19T11:31:57;3.47;;;1.50;;
77111;SDS011;66064;50.226;14.344;2023-09-19T11:37:05;3.70;;;1.52;;
77111;SDS011;66064;50.226;14.344;2023-09-19T11:40:09;2.05;;;1.30;;
77111;SDS011;66064;50.226;14.344;2023-09-19T11:48:18;2.13;;;1.08;;
77111;SDS011;66064;50.226;14.344;2023-09-19T11:50:44;2.22;;;1.25;;
77111;SDS011;66064;50.226;14.344;2023-09-19T11:53:13;3.22;;;1.30;;
77111;SDS011;66064;50.226;14.344;2023-09-19T11:55:41;2.88;;;1.40;;
77111;SDS011;66064;50.226;14.344;2023-09-19T11:58:11;2.63;;;1.33;;
77111;SDS011;66064;50.226;14.344;2023-09-19T12:00:42;4.22;;;1.40;;
77111;SDS011;66064;50.226;14.344;2023-09-19T12:03:12;2.60;;;1.50;;
77111;SDS011;66064;50.226;14.344;2023-09-19T12:05:40;2.03;;;1.38;;
77111;SDS011;66064;50.226;14.344;2023-09-19T12:08:09;2.33;;;1.42;;
77111;SDS011;66064;50.226;14.344;2023-09-19T12:10:48;1.35;;;1.08;;
77111;SDS011;66064;50.226;14.344;2023-09-19T12:13:17;2.30;;;1.40;;
77111;SDS011;66064;50.226;14.344;2023-09-19T12:15:44;2.05;;;1.33;;
77111;SDS011;66064;50.226;14.344;2023-09-19T12:18:26;2.92;;;1.55;;
77111;SDS011;66064;50.226;14.344;2023-09-19T12:20:56;2.13;;;1.40;;
77111;SDS011;66064;50.226;14.344;2023-09-19T12:23:23;2.67;;;1.65;;
77111;SDS011;66064;50.226;14.344;2023-09-19T12:25:51;2.40;;;1.50;;
77111;SDS011;66064;50.226;14.344;2023-09-19T12:28:19;2.10;;;1.40;;
77111;SDS011;66064;50.226;14.344;2023-09-19T12:30:47;2.90;;;1.60;;
77111;SDS011;66064;50.226;14.344;2023-09-19T12:33:19;3.25;;;1.73;;
77111;SDS011;66064;50.226;14.344;2023-09-19T12:35:46;2.30;;;1.58;;
77111;SDS011;66064;50.226;14.344;2023-09-19T12:38:28;3.92;;;1.75;;
77111;SDS011;66064;50.226;14.344;2023-09-19T12:40:57;3.45;;;1.70;;
77111;SDS011;66064;50.226;14.344;2023-09-19T12:43:30;3.25;;;1.80;;
77111;SDS011;66064;50.226;14.344;2023-09-19T12:46:01;2.17;;;1.55;;
77111;SDS011;66064;50.226;14.344;2023-09-19T12:48:28;3.65;;;1.70;;
77111;SDS011;66064;50.226;14.344;2023-09-19T12:50:59;3.85;;;1.85;;
77111;SDS011;66064;50.226;14.344;2023-09-19T12:53:44;2.33;;;1.70;;
77111;SDS011;66064;50.226;14.344;2023-09-19T12:56:14;2.50;;;1.90;;
77111;SDS011;66064;50.226;14.344;2023-09-19T13:01:20;2.78;;;1.80;;
77111;SDS011;66064;50.226;14.344;2023-09-19T13:06:43;2.50;;;1.70;;
77111;SDS011;66064;50.226;14.344;2023-09-19T13:09:11;2.88;;;1.80;;
77111;SDS011;66064;50.226;14.344;2023-09-19T13:11:38;2.60;;;2.00;;
77111;SDS011;66064;50.226;14.344;2023-09-19T13:14:13;5.40;;;1.77;;
77111;SDS011;66064;50.226;14.344;2023-09-19T13:25:08;3.00;;;2.10;;
77111;SDS011;66064;50.226;14.344;2023-09-19T13:27:43;3.22;;;1.90;;
77111;SDS011;66064;50.226;14.344;2023-09-19T13:30:11;2.60;;;1.75;;
77111;SDS011;66064;50.226;14.344;2023-09-19T13:32:38;3.45;;;2.15;;
77111;SDS011;66064;50.226;14.344;2023-09-19T13:35:06;3.13;;;2.00;;
77111;SDS011;66064;50.226;14.344;2023-09-19T13:37:36;2.42;;;1.73;;
77111;SDS011;66064;50.226;14.344;2023-09-19T13:40:07;3.85;;;2.50;;
77111;SDS011;66064;50.226;14.344;2023-09-19T13:42:37;3.03;;;1.58;;
77111;SDS011;66064;50.226;14.344;2023-09-19T13:45:03;2.92;;;2.17;;
77111;SDS011;66064;50.226;14.344;2023-09-19T13:47:30;2.58;;;2.00;;
77111;SDS011;66064;50.226;14.344;2023-09-19T13:49:58;5.60;;;2.03;;
77111;SDS011;66064;50.226;14.344;2023-09-19T13:52:26;3.13;;;2.35;;
77111;SDS011;66064;50.226;14.344;2023-09-19T13:54:54;3.92;;;2.10;;
77111;SDS011;66064;50.226;14.344;2023-09-19T13:57:23;3.65;;;2.10;;
77111;SDS011;66064;50.226;14.344;2023-09-19T13:59:51;3.20;;;2.17;;
77111;SDS011;66064;50.226;14.344;2023-09-19T14:02:20;3.70;;;2.20;;
77111;SDS011;66064;50.226;14.344;2023-09-19T14:04:53;2.30;;;1.77;;
77111;SDS011;66064;50.226;14.344;2023-09-19T14:07:20;2.67;;;2.00;;
77111;SDS011;66064;50.226;14.344;2023-09-19T14:09:46;3.03;;;2.35;;
77111;SDS011;66064;50.226;14.344;2023-09-19T14:12:13;5.90;;;2.20;;
77111;SDS011;66064;50.226;14.344;2023-09-19T14:14:39;2.55;;;1.90;;
77111;SDS011;66064;50.226;14.344;2023-09-19T14:17:06;3.90;;;2.30;;
77111;SDS011;66064;50.226;14.344;2023-09-19T14:19:33;3.63;;;1.98;;
77111;SDS011;66064;50.226;14.344;2023-09-19T14:22:00;2.75;;;1.92;;
77111;SDS011;66064;50.226;14.344;2023-09-19T14:24:33;2.97;;;2.13;;
77111;SDS011;66064;50.226;14.344;2023-09-19T14:26:59;4.05;;;1.73;;
77111;SDS011;66064;50.226;14.344;2023-09-19T14:29:25;3.10;;;1.75;;
77111;SDS011;66064;50.226;14.344;2023-09-19T14:31:51;2.78;;;1.85;;
77111;SDS011;66064;50.226;14.344;2023-09-19T14:34:17;4.78;;;2.35;;
77111;SDS011;66064;50.226;14.344;2023-09-19T14:36:45;3.13;;;2.20;;
77111;SDS011;66064;50.226;14.344;2023-09-19T14:39:11;4.05;;;2.17;;
77111;SDS011;66064;50.226;14.344;2023-09-19T14:41:37;3.72;;;2.10;;
77111;SDS011;66064;50.226;14.344;2023-09-19T14:44:03;3.42;;;2.20;;
77111;SDS011;66064;50.226;14.344;2023-09-19T14:46:30;3.45;;;2.10;;
77111;SDS011;66064;50.226;14.344;2023-09-19T14:48:56;2.88;;;2.35;;
77111;SDS011;66064;50.226;14.344;2023-09-19T14:51:29;2.45;;;2.10;;
77111;SDS011;66064;50.226;14.344;2023-09-19T14:54:00;2.70;;;2.40;;
77111;SDS011;66064;50.226;14.344;2023-09-19T14:56:29;3.35;;;2.00;;
77111;SDS011;66064;50.226;14.344;2023-09-19T14:58:58;2.53;;;2.13;;
77111;SDS011;66064;50.226;14.344;2023-09-19T15:01:26;2.50;;;2.30;;
77111;SDS011;66064;50.226;14.344;2023-09-19T15:03:54;3.00;;;2.58;;
77111;SDS011;66064;50.226;14.344;2023-09-19T15:06:21;5.97;;;2.10;;
77111;SDS011;66064;50.226;14.344;2023-09-19T15:08:51;2.47;;;1.70;;
77111;SDS011;66064;50.226;14.344;2023-09-19T15:11:19;2.83;;;2.30;;
77111;SDS011;66064;50.226;14.344;2023-09-19T15:13:47;3.25;;;1.88;;
77111;SDS011;66064;50.226;14.344;2023-09-19T15:16:18;3.92;;;3.00;;
77111;SDS011;66064;50.226;14.344;2023-09-19T15:18:45;3.47;;;2.72;;
77111;SDS011;66064;50.226;14.344;2023-09-19T15:21:13;2.78;;;2.40;;
77111;SDS011;66064;50.226;14.344;2023-09-19T15:23:40;2.58;;;2.15;;
77111;SDS011;66064;50.226;14.344;2023-09-19T15:26:07;2.80;;;2.50;;
77111;SDS011;66064;50.226;14.344;2023-09-19T15:28:35;2.83;;;2.40;;
77111;SDS011;66064;50.226;14.344;2023-09-19T15:31:02;3.20;;;2.35;;
77111;SDS011;66064;50.226;14.344;2023-09-19T15:33:33;4.25;;;2.70;;
77111;SDS011;66064;50.226;14.344;2023-09-19T15:36:02;3.47;;;2.63;;
77111;SDS011;66064;50.226;14.344;2023-09-19T15:38:30;3.22;;;2.55;;
77111;SDS011;66064;50.226;14.344;2023-09-19T15:40:59;2.92;;;2.60;;
77111;SDS011;66064;50.226;14.344;2023-09-19T15:43:25;3.92;;;2.80;;
77111;SDS011;66064;50.226;14.344;2023-09-19T15:45:51;5.13;;;2.65;;
77111;SDS011;66064;50.226;14.344;2023-09-19T15:48:17;3.47;;;2.72;;
77111;SDS011;66064;50.226;14.344;2023-09-19T15:50:47;4.35;;;3.03;;
77111;SDS011;66064;50.226;14.344;2023-09-19T15:53:13;4.38;;;2.92;;
77111;SDS011;66064;50.226;14.344;2023-09-19T15:55:40;5.97;;;2.50;;
77111;SDS011;66064;50.226;14.344;2023-09-19T15:58:07;5.20;;;2.58;;
77111;SDS011;66064;50.226;14.344;2023-09-19T16:00:34;3.30;;;2.60;;